createdAt,value
2019-04-28T00:02:04.039Z,11.84
2019-04-28T00:05:27.282Z,11.93
2019-04-28T00:08:51.749Z,11.73
2019-04-28T00:12:15.361Z,11.83
2019-04-28T00:15:38.669Z,12.03
2019-04-28T00:19:01.993Z,11.70
2019-04-28T00:22:31.896Z,11.81
2019-04-28T00:26:07.106Z,12.07
2019-04-28T00:29:38.685Z,12.16
2019-04-28T00:32:55.568Z,12.05
2019-04-28T00:36:18.817Z,12.12
2019-04-28T00:39:41.974Z,12.23
2019-04-28T00:43:05.232Z,11.91
2019-04-28T00:46:33.206Z,11.70
2019-04-28T00:49:56.237Z,12.06
2019-04-28T00:53:20.702Z,11.77
2019-04-28T00:56:44.391Z,11.55
2019-04-28T01:00:07.920Z,11.83
2019-04-28T01:03:32.298Z,11.71
2019-04-28T01:06:55.373Z,11.74
2019-04-28T01:10:21.052Z,11.84
2019-04-28T01:13:44.244Z,11.63
2019-04-28T01:17:13.142Z,11.85
2019-04-28T01:20:36.261Z,11.70
2019-04-28T01:23:59.840Z,11.92
2019-04-28T01:27:50.426Z,11.70
2019-04-28T01:31:22.091Z,11.79
2019-04-28T01:34:45.498Z,11.59
2019-04-28T01:38:09.944Z,11.82
2019-04-28T01:41:33.463Z,11.59
2019-04-28T01:44:56.557Z,11.97
2019-04-28T01:48:19.992Z,11.83
2019-04-28T01:51:43.062Z,11.65
2019-04-28T01:55:06.101Z,11.46
2019-04-28T01:58:29.738Z,11.73
2019-04-28T02:01:52.891Z,11.44
2019-04-28T02:05:16.043Z,11.33
2019-04-28T02:08:39.888Z,11.31
2019-04-28T02:12:03.278Z,11.30
2019-04-28T02:15:26.357Z,11.85
2019-04-28T02:18:50.475Z,11.38
2019-04-28T02:22:37.145Z,11.29
2019-04-28T02:26:00.153Z,11.78
2019-04-28T02:29:23.494Z,11.34
2019-04-28T02:32:46.505Z,11.60
2019-04-28T02:36:12.310Z,11.28
2019-04-28T02:39:34.829Z,11.61
2019-04-28T02:42:58.270Z,11.34
2019-04-28T02:46:21.282Z,11.23
2019-04-28T02:49:56.992Z,11.20
2019-04-28T02:53:30.941Z,11.42
2019-04-28T02:56:53.114Z,11.04
2019-04-28T03:00:16.724Z,10.99
2019-04-28T03:03:40.937Z,11.26
2019-04-28T03:07:04.144Z,10.62
2019-04-28T03:10:27.498Z,11.11
2019-04-28T03:13:51.253Z,11.02
2019-04-28T03:17:14.527Z,11.19
2019-04-28T03:20:37.502Z,11.26
2019-04-28T03:24:01.242Z,11.10
2019-04-28T03:27:43.016Z,10.89
2019-04-28T03:31:48.937Z,10.75
2019-04-28T03:34:53.208Z,11.13
2019-04-28T03:38:12.896Z,10.98
2019-04-28T03:41:36.222Z,11.28
2019-04-28T03:45:01.231Z,11.04
2019-04-28T03:48:24.232Z,11.46
2019-04-28T03:51:47.242Z,11.35
2019-04-28T03:55:11.730Z,11.22
2019-04-28T03:58:34.877Z,10.89
2019-04-28T04:02:00.749Z,11.13
2019-04-28T04:05:22.841Z,11.27
2019-04-28T04:08:46.180Z,11.14
2019-04-28T04:12:40.994Z,11.20
2019-04-28T04:16:12.952Z,11.43
2019-04-28T04:19:36.401Z,11.01
2019-04-28T04:23:01.446Z,11.18
2019-04-28T04:26:24.816Z,11.14
2019-04-28T04:29:47.844Z,11.17
2019-04-28T04:33:11.342Z,11.09
2019-04-28T04:36:34.470Z,11.28
2019-04-28T04:39:57.602Z,11.30
2019-04-28T04:43:23.416Z,11.36
2019-04-28T04:46:46.322Z,11.64
2019-04-28T04:50:11.324Z,11.65
2019-04-28T04:53:35.913Z,11.54
2019-04-28T04:57:00.019Z,11.67
2019-04-28T05:00:34.504Z,11.59
2019-04-28T05:04:04.576Z,11.57
2019-04-28T05:07:29.667Z,11.65
2019-04-28T05:10:52.941Z,11.44
2019-04-28T05:14:15.945Z,11.76
2019-04-28T05:17:41.247Z,11.91
2019-04-28T05:25:10.077Z,11.81
2019-04-28T05:28:36.882Z,11.42
2019-04-28T05:32:02.981Z,11.83
2019-04-28T05:35:25.223Z,11.52
2019-04-28T05:38:49.659Z,11.49
2019-04-28T05:42:12.836Z,11.67
2019-04-28T05:45:35.830Z,11.57
2019-04-28T05:49:19.562Z,11.58
2019-04-28T05:53:02.163Z,12.01
2019-04-28T05:56:40.283Z,12.16
2019-04-28T06:00:16.391Z,12.05
2019-04-28T06:03:40.569Z,11.97
2019-04-28T06:07:17.090Z,11.75
2019-04-28T06:10:40.331Z,12.18
2019-04-28T06:14:27.495Z,12.26
2019-04-28T06:17:51.112Z,12.17
2019-04-28T06:21:14.227Z,12.42
2019-04-28T06:24:37.390Z,12.23
2019-04-28T06:28:00.773Z,12.20
2019-04-28T06:31:23.769Z,12.05
2019-04-28T06:34:46.844Z,11.91
2019-04-28T06:38:09.925Z,11.62
2019-04-28T06:41:32.979Z,11.85
2019-04-28T06:44:56.179Z,11.97
2019-04-28T06:48:19.318Z,11.77
2019-04-28T06:51:42.369Z,12.02
2019-04-28T06:55:05.605Z,11.43
2019-04-28T06:58:28.878Z,11.68
2019-04-28T07:01:51.912Z,11.90
2019-04-28T07:05:15.036Z,12.03
2019-04-28T07:08:38.061Z,12.43
2019-04-28T07:12:01.496Z,12.21
2019-04-28T07:15:25.694Z,11.66
2019-04-28T07:18:48.852Z,11.77
2019-04-28T07:22:20.757Z,12.06
2019-04-28T07:25:44.166Z,11.64
2019-04-28T07:29:07.398Z,11.60
2019-04-28T07:32:30.739Z,11.95
2019-04-28T07:35:53.808Z,12.41
2019-04-28T07:39:16.847Z,12.65
2019-04-28T07:42:40.059Z,12.46
2019-04-28T07:46:03.226Z,12.53
2019-04-28T07:49:27.332Z,12.19
2019-04-28T07:53:22.097Z,12.75
2019-04-28T07:56:45.238Z,12.83
2019-04-28T08:00:11.633Z,12.67
2019-04-28T08:03:48.499Z,13.02
2019-04-28T08:07:01.495Z,13.04
2019-04-28T08:10:24.566Z,12.80
2019-04-28T08:13:47.622Z,13.11
2019-04-28T08:17:10.603Z,13.34
2019-04-28T08:20:34.192Z,13.38
2019-04-28T08:23:57.674Z,13.29
2019-04-28T08:27:20.796Z,13.64
2019-04-28T08:30:44.702Z,13.73
2019-04-28T08:34:12.434Z,13.76
2019-04-28T08:37:35.444Z,13.38
2019-04-28T08:41:01.931Z,14.03
2019-04-28T08:44:25.155Z,13.75
2019-04-28T08:47:48.264Z,13.38
2019-04-28T08:51:11.281Z,12.60
2019-04-28T08:54:34.484Z,13.85
2019-04-28T08:57:58.106Z,13.86
2019-04-28T09:01:21.551Z,14.57
2019-04-28T09:04:44.909Z,14.54
2019-04-28T09:08:08.098Z,14.05
2019-04-28T09:11:31.132Z,14.20
2019-04-28T09:14:54.366Z,14.20
2019-04-28T09:18:17.707Z,14.21
2019-04-28T09:21:41.008Z,14.11
2019-04-28T09:25:04.614Z,14.66
2019-04-28T09:28:27.676Z,14.46
2019-04-28T09:31:50.709Z,14.42
2019-04-28T09:35:15.130Z,15.27
2019-04-28T09:38:38.461Z,15.00
2019-04-28T09:42:20.068Z,15.56
2019-04-28T09:45:55.275Z,14.68
2019-04-28T09:49:18.642Z,14.00
2019-04-28T09:52:41.813Z,14.20
2019-04-28T09:56:05.087Z,14.60
2019-04-28T09:59:28.751Z,15.10
2019-04-28T10:02:52.395Z,15.55
2019-04-28T10:06:15.933Z,15.34
2019-04-28T10:09:39.495Z,16.15
2019-04-28T10:13:03.970Z,15.80
2019-04-28T10:17:32.832Z,17.05
2019-04-28T10:21:22.320Z,16.08
2019-04-28T10:24:50.957Z,16.15
2019-04-28T10:28:13.873Z,16.02
2019-04-28T10:31:37.255Z,17.35
2019-04-28T10:35:00.498Z,18.08
2019-04-28T10:38:25.173Z,18.61
2019-04-28T10:41:48.907Z,17.27
2019-04-28T10:45:15.870Z,16.37
2019-04-28T10:48:38.869Z,16.22
2019-04-28T10:52:01.997Z,16.67
2019-04-28T10:55:25.106Z,16.37
2019-04-28T10:58:50.048Z,16.08
2019-04-28T11:02:13.218Z,14.94
2019-04-28T11:05:41.436Z,16.03
2019-04-28T11:09:30.457Z,16.62
2019-04-28T11:12:47.785Z,16.06
2019-04-28T11:16:13.786Z,16.04
2019-04-28T11:19:37.216Z,17.41
2019-04-28T11:23:00.635Z,18.93
2019-04-28T11:26:23.655Z,18.77
2019-04-28T11:29:47.796Z,20.96
2019-04-28T11:33:30.583Z,21.94
2019-04-28T11:36:53.867Z,21.96
2019-04-28T11:40:17.005Z,20.23
2019-04-28T11:43:40.568Z,20.68
2019-04-28T11:47:05.754Z,21.58
2019-04-28T11:50:29.346Z,22.27
2019-04-28T11:53:52.510Z,21.61
2019-04-28T11:57:15.655Z,21.65
2019-04-28T12:00:38.752Z,21.05
2019-04-28T12:04:03.824Z,20.20
2019-04-28T12:07:28.800Z,19.40
2019-04-28T12:11:00.079Z,18.60
2019-04-28T12:14:34.638Z,17.64
2019-04-28T12:18:28.800Z,17.78
2019-04-28T12:21:51.947Z,18.00
2019-04-28T12:25:15.446Z,17.73
2019-04-28T12:28:38.489Z,17.38
2019-04-28T12:32:01.581Z,17.33
2019-04-28T12:35:24.695Z,18.08
2019-04-28T12:38:47.982Z,17.72
2019-04-28T12:42:10.985Z,17.07
2019-04-28T12:45:35.207Z,17.06
2019-04-28T12:49:02.198Z,15.33
2019-04-28T12:52:25.381Z,14.62
2019-04-28T12:55:48.463Z,14.36
2019-04-28T12:59:17.092Z,14.40
2019-04-28T13:03:00.792Z,15.35
2019-04-28T13:06:24.000Z,15.42
2019-04-28T13:09:47.316Z,15.82
2019-04-28T13:13:10.363Z,17.12
2019-04-28T13:16:34.599Z,18.06
2019-04-28T13:19:57.753Z,18.55
2019-04-28T13:23:20.798Z,20.36
2019-04-28T13:26:46.291Z,22.43
2019-04-28T13:30:09.912Z,22.36
2019-04-28T13:33:35.862Z,21.20
2019-04-28T13:36:59.028Z,22.48
2019-04-28T13:40:26.908Z,22.43
2019-04-28T13:43:50.022Z,21.65
2019-04-28T13:47:13.474Z,19.87
2019-04-28T13:50:37.704Z,20.91
2019-04-28T13:54:03.138Z,20.81
2019-04-28T13:57:26.357Z,21.32
2019-04-28T14:01:09.142Z,19.79
2019-04-28T14:04:58.667Z,19.80
2019-04-28T14:08:22.909Z,18.66
2019-04-28T14:11:46.371Z,17.56
2019-04-28T14:15:10.144Z,18.12
2019-04-28T14:18:33.793Z,18.73
2019-04-28T14:21:56.858Z,18.75
2019-04-28T14:25:20.008Z,18.85
2019-04-28T14:28:43.288Z,18.10
2019-04-28T14:32:06.495Z,17.37
2019-04-28T14:35:30.445Z,17.69
2019-04-28T14:38:53.702Z,18.19
2019-04-28T14:42:16.772Z,18.11
2019-04-28T14:45:40.029Z,18.44
2019-04-28T14:49:03.298Z,18.13
2019-04-28T14:52:26.803Z,19.10
2019-04-28T14:55:50.435Z,19.08
2019-04-28T14:59:13.909Z,19.31
2019-04-28T15:02:46.257Z,19.38
2019-04-28T15:06:24.790Z,18.83
2019-04-28T15:10:10.094Z,18.46
2019-04-28T15:13:45.613Z,18.27
2019-04-28T15:17:11.632Z,18.38
2019-04-28T15:20:34.744Z,22.02
2019-04-28T15:23:57.947Z,24.14
2019-04-28T15:27:21.005Z,24.07
2019-04-28T15:30:44.289Z,21.41
2019-04-28T15:34:07.412Z,20.49
2019-04-28T15:37:30.502Z,19.49
2019-04-28T15:40:53.502Z,18.55
2019-04-28T15:44:16.558Z,17.60
2019-04-28T15:47:39.582Z,17.91
2019-04-28T15:51:03.061Z,18.28
2019-04-28T15:54:26.262Z,17.54
2019-04-28T15:57:49.398Z,17.45
2019-04-28T16:01:12.489Z,17.30
2019-04-28T16:04:35.674Z,19.79
2019-04-28T16:07:58.850Z,19.37
2019-04-28T16:11:22.198Z,18.12
2019-04-28T16:14:45.203Z,17.15
2019-04-28T16:18:08.628Z,16.91
2019-04-28T16:21:31.737Z,16.71
2019-04-28T16:24:55.216Z,16.90
2019-04-28T16:28:18.229Z,16.30
2019-04-28T16:31:41.394Z,16.26
2019-04-28T16:35:04.552Z,16.31
2019-04-28T16:38:27.842Z,16.24
2019-04-28T16:42:26.901Z,16.45
2019-04-28T16:45:51.979Z,16.11
2019-04-28T16:49:15.097Z,16.42
2019-04-28T16:52:38.368Z,16.38
2019-04-28T16:56:23.896Z,16.19
2019-04-28T16:59:51.650Z,16.46
2019-04-28T17:03:16.177Z,17.04
2019-04-28T17:06:39.263Z,17.21
2019-04-28T17:10:02.256Z,17.18
2019-04-28T17:13:25.369Z,17.35
2019-04-28T17:16:48.491Z,17.47
2019-04-28T17:20:11.854Z,17.26
2019-04-28T17:23:34.957Z,17.14
2019-04-28T17:26:58.180Z,17.08
2019-04-28T17:30:22.776Z,16.97
2019-04-28T17:33:46.115Z,17.05
2019-04-28T17:37:10.742Z,16.60
2019-04-28T17:40:35.235Z,16.55
2019-04-28T17:43:59.034Z,16.37
2019-04-28T17:47:23.128Z,15.97
2019-04-28T17:50:46.842Z,15.69
2019-04-28T17:54:10.338Z,15.57
2019-04-28T17:57:33.433Z,15.35
2019-04-28T18:01:16.042Z,15.40
2019-04-28T18:04:47.421Z,15.44
2019-04-28T18:08:20.889Z,15.27
2019-04-28T18:11:36.040Z,15.15
2019-04-28T18:15:14.394Z,14.97
2019-04-28T18:18:46.706Z,14.93
2019-04-28T18:22:09.736Z,14.95
2019-04-28T18:25:32.889Z,14.84
2019-04-28T18:28:56.323Z,14.67
2019-04-28T18:32:44.674Z,14.60
2019-04-28T18:36:15.234Z,14.42
2019-04-28T18:39:57.082Z,14.36
2019-04-28T18:43:45.785Z,14.33
2019-04-28T18:47:09.257Z,14.45
2019-04-28T18:50:33.488Z,14.24
2019-04-28T18:53:57.363Z,14.24
2019-04-28T18:57:21.033Z,14.31
2019-04-28T19:00:51.246Z,14.47
2019-04-28T19:04:15.151Z,14.50
2019-04-28T19:08:16.058Z,14.63
2019-04-28T19:11:53.850Z,14.61
2019-04-28T19:15:39.700Z,14.42
2019-04-28T19:19:05.922Z,14.19
2019-04-28T19:22:32.511Z,13.94
2019-04-28T19:25:55.881Z,13.78
2019-04-28T19:29:19.459Z,13.61
2019-04-28T19:32:42.878Z,13.53
2019-04-28T19:36:06.156Z,13.20
2019-04-28T19:39:32.787Z,13.05
2019-04-28T19:42:57.492Z,13.02
2019-04-28T19:46:21.634Z,13.03
2019-04-28T19:49:46.826Z,12.97
2019-04-28T19:53:13.450Z,12.85
2019-04-28T19:56:48.151Z,12.72
2019-04-28T20:00:24.730Z,12.47
2019-04-28T20:03:48.060Z,12.26
2019-04-28T20:07:11.129Z,12.12
2019-04-28T20:10:34.276Z,12.14
2019-04-28T20:13:57.519Z,11.91
2019-04-28T20:17:21.551Z,11.89
2019-04-28T20:20:44.828Z,11.69
2019-04-28T20:24:08.276Z,11.61
2019-04-28T20:27:31.427Z,11.48
2019-04-28T20:30:54.841Z,11.44
2019-04-28T20:34:18.566Z,11.45
2019-04-28T20:37:46.588Z,11.27
2019-04-28T20:41:35.459Z,11.40
2019-04-28T20:44:58.537Z,11.30
2019-04-28T20:48:21.648Z,11.26
2019-04-28T20:51:44.668Z,11.22
2019-04-28T20:55:07.697Z,11.05
2019-04-28T20:58:30.863Z,11.10
2019-04-28T21:01:53.881Z,10.97
2019-04-28T21:05:17.051Z,10.91
2019-04-28T21:08:40.721Z,10.91
2019-04-28T21:12:03.871Z,11.01
2019-04-28T21:15:27.218Z,11.03
2019-04-28T21:18:50.363Z,11.05
2019-04-28T21:22:13.890Z,11.06
2019-04-28T21:25:37.018Z,11.13
2019-04-28T21:29:00.154Z,10.98
2019-04-28T21:32:23.622Z,10.93
2019-04-28T21:35:46.747Z,10.96
2019-04-28T21:39:09.856Z,10.76
2019-04-28T21:42:57.668Z,10.61
2019-04-28T21:46:52.622Z,10.53
2019-04-28T21:50:16.447Z,10.48
2019-04-28T21:53:40.230Z,10.58
2019-04-28T21:57:03.272Z,10.45
2019-04-28T22:00:42.220Z,10.39
2019-04-28T22:04:20.293Z,10.41
2019-04-28T22:07:43.384Z,10.27
2019-04-28T22:11:06.394Z,10.26
2019-04-28T22:14:29.578Z,10.20
2019-04-28T22:17:52.553Z,10.20
2019-04-28T22:21:15.680Z,10.14
2019-04-28T22:24:47.203Z,10.16
2019-04-28T22:28:10.354Z,10.14
2019-04-28T22:31:33.493Z,9.99
2019-04-28T22:34:56.672Z,9.97
2019-04-28T22:38:19.787Z,10.01
2019-04-28T22:41:42.975Z,9.79
2019-04-28T22:45:06.687Z,9.83
2019-04-28T22:48:29.749Z,9.73
2019-04-28T22:51:52.773Z,9.75
2019-04-28T22:55:20.359Z,9.76
2019-04-28T22:58:49.140Z,9.70
2019-04-28T23:02:14.522Z,9.73
2019-04-28T23:05:37.770Z,9.75
2019-04-28T23:09:01.022Z,9.56
2019-04-28T23:12:24.788Z,9.58
2019-04-28T23:15:48.341Z,9.44
2019-04-28T23:19:13.546Z,9.51
2019-04-28T23:22:48.607Z,9.37
2019-04-28T23:26:12.259Z,9.39
2019-04-28T23:29:35.397Z,9.47
2019-04-28T23:32:58.624Z,9.48
2019-04-28T23:36:21.742Z,9.50
2019-04-28T23:39:44.792Z,9.53
2019-04-28T23:43:12.862Z,9.43
2019-04-28T23:46:55.977Z,9.38
2019-04-28T23:50:27.276Z,9.56
2019-04-28T23:53:59.169Z,9.45
2019-04-28T23:57:22.272Z,9.40
